Time;durP1;ratioP1;P1;durP2;ratioP2;P2;SDS_P1;SDS_P2;PMS_P1;PMS_P2;Temp;Humidity;BMP_temperature;BMP_pressure;BME280_temperature;BME280_humidity;BME280_pressure;Samples;Min_cycle;Max_cycle;Signal;HPM_P1;HPM_P2
2023/12/01 00:00:37;;;;;;;4.93;1.40;;;5.60;99.90;;;;;;25471361;23;20009;-61
2023/12/01 00:10:38;;;;;;;1.40;0.70;;;5.70;99.90;;;;;;25472563;23;20064;-60
2023/12/01 00:20:43;;;;;;;2.38;0.70;;;5.70;99.90;;;;;;25472043;23;20001;-60
2023/12/01 00:30:44;;;;;;;1.83;0.50;;;6.00;99.90;;;;;;25471927;23;20005;-60
2023/12/01 00:40:46;;;;;;;1.80;0.68;;;6.10;99.90;;;;;;25471543;23;20013;-59
2023/12/01 00:50:48;;;;;;;4.53;1.00;;;6.10;99.90;;;;;;25471170;23;20056;-60
2023/12/01 01:00:49;;;;;;;5.28;1.30;;;6.10;99.90;;;;;;25470809;23;20403;-60
2023/12/01 01:10:53;;;;;;;5.38;1.92;;;6.00;99.90;;;;;;25465415;23;20006;-51
2023/12/01 01:20:57;;;;;;;4.13;2.22;;;6.00;99.90;;;;;;25468848;23;20005;-58
2023/12/01 01:30:59;;;;;;;3.55;2.15;;;6.30;99.90;;;;;;25473448;23;20006;-59
2023/12/01 01:41:01;;;;;;;7.35;1.92;;;6.00;99.90;;;;;;25478248;23;20009;-59
2023/12/01 01:51:06;;;;;;;3.85;1.83;;;5.90;99.90;;;;;;25476526;23;20016;-59
2023/12/01 02:01:08;;;;;;;3.53;1.60;;;5.90;99.90;;;;;;25518464;23;20058;-52
2023/12/01 02:11:10;;;;;;;5.85;2.03;;;6.60;99.90;;;;;;25475647;23;20006;-58
2023/12/01 02:21:12;;;;;;;2.70;0.90;;;6.50;99.90;;;;;;25475168;23;20002;-48
2023/12/01 02:31:14;;;;;;;2.15;1.20;;;6.50;99.90;;;;;;25474486;23;20442;-58
2023/12/01 02:41:20;;;;;;;2.95;1.10;;;6.90;99.90;;;;;;25475877;23;20080;-59
2023/12/01 02:51:23;;;;;;;3.20;0.95;;;6.90;99.90;;;;;;25475498;23;20010;-51
2023/12/01 03:01:25;;;;;;;2.67;0.77;;;6.80;99.90;;;;;;25473964;23;20001;-59
2023/12/01 03:11:27;;;;;;;3.00;0.80;;;7.10;99.90;;;;;;25475037;23;20006;-59
2023/12/01 03:21:28;;;;;;;2.35;0.95;;;6.80;99.90;;;;;;25476037;23;20386;-46
2023/12/01 03:31:30;;;;;;;2.67;1.17;;;6.40;99.90;;;;;;25474107;23;20017;-61
2023/12/01 03:41:35;;;;;;;5.60;3.53;;;6.40;99.90;;;;;;25474355;23;20010;-60
2023/12/01 03:51:37;;;;;;;4.68;2.08;;;6.50;99.90;;;;;;25470540;23;20013;-59
2023/12/01 04:01:39;;;;;;;6.47;2.90;;;6.00;99.90;;;;;;25473195;23;20085;-52
2023/12/01 04:11:41;;;;;;;2.08;0.75;;;6.20;99.90;;;;;;25471249;23;20377;-61
2023/12/01 04:21:43;;;;;;;1.98;0.40;;;6.40;99.90;;;;;;25471792;23;20025;-54
2023/12/01 04:31:45;;;;;;;0.50;0.30;;;6.60;99.90;;;;;;25471630;23;20006;-61
2023/12/01 04:41:53;;;;;;;0.50;0.30;;;6.70;99.90;;;;;;25471800;23;20013;-60
2023/12/01 04:51:54;;;;;;;0.68;0.30;;;6.80;99.90;;;;;;25471575;23;20013;-61
2023/12/01 05:01:57;;;;;;;100.75;5.40;;;6.60;99.90;;;;;;25471098;23;20001;-61
2023/12/01 05:11:59;;;;;;;0.13;0.13;;;6.30;99.90;;;;;;25471109;23;20006;-60
2023/12/01 05:22:01;;;;;;;16.02;1.65;;;6.10;99.90;;;;;;25470902;23;20008;-60
2023/12/01 05:32:05;;;;;;;3.10;0.90;;;6.20;99.90;;;;;;25468939;23;20033;-49
2023/12/01 05:42:07;;;;;;;0.77;0.38;;;6.40;99.90;;;;;;25470371;23;20020;-60
2023/12/01 05:52:09;;;;;;;51.90;1.90;;;6.40;99.90;;;;;;25469665;23;20033;-61
2023/12/01 06:02:17;;;;;;;127.50;3.13;;;6.30;99.90;;;;;;25470105;23;20001;-60
2023/12/01 06:12:19;;;;;;;75.18;2.30;;;5.30;99.90;;;;;;25511115;23;20086;-60
2023/12/01 06:22:21;;;;;;;521.38;14.15;;;4.60;99.90;;;;;;25476964;23;20334;-60
2023/12/01 06:32:23;;;;;;;52.95;1.58;;;4.60;99.90;;;;;;25476061;23;20064;-60
2023/12/01 06:42:24;;;;;;;224.27;7.25;;;4.50;99.90;;;;;;25476212;23;20033;-60
2023/12/01 06:52:26;;;;;;;6.93;0.15;;;5.00;99.90;;;;;;25476062;23;20095;-59
2023/12/01 07:02:37;;;;;;;242.18;7.45;;;4.80;99.90;;;;;;25475724;23;20005;-60
2023/12/01 07:12:39;;;;;;;;;;;4.80;99.90;;;;;;25516490;23;20013;-59
2023/12/01 07:22:47;;;;;;;242.20;7.22;;;5.80;99.90;;;;;;25474416;23;19905;-51
2023/12/01 07:32:50;;;;;;;150.32;3.88;;;5.70;99.90;;;;;;25473670;23;20512;-60
2023/12/01 07:42:54;;;;;;;48.20;1.17;;;5.20;99.90;;;;;;25471938;23;20005;-56
2023/12/01 07:52:56;;;;;;;2.83;0.00;;;5.00;99.90;;;;;;25473281;23;20016;-61
2023/12/01 08:02:58;;;;;;;0.00;0.00;;;5.00;99.90;;;;;;25473109;23;20373;-61
2023/12/01 08:13:00;;;;;;;0.00;0.00;;;5.00;99.90;;;;;;25472932;23;20442;-60
2023/12/01 08:23:02;;;;;;;0.25;0.00;;;5.00;99.90;;;;;;25472507;23;20001;-59
2023/12/01 08:33:04;;;;;;;0.10;0.00;;;5.10;99.90;;;;;;25471457;23;20060;-60
2023/12/01 08:43:08;;;;;;;0.00;0.00;;;5.20;99.90;;;;;;25471005;23;20441;-49
2023/12/01 08:53:10;;;;;;;14.65;0.15;;;5.10;99.90;;;;;;25469443;23;20009;-60
2023/12/01 09:03:12;;;;;;;35.30;0.90;;;5.20;99.90;;;;;;25471194;23;20005;-59
2023/12/01 09:13:14;;;;;;;83.32;2.00;;;5.10;99.90;;;;;;25473012;23;20029;-59
2023/12/01 09:23:22;;;;;;;157.70;4.45;;;5.70;99.90;;;;;;25469011;23;20393;-60
2023/12/01 09:33:24;;;;;;;114.53;2.33;;;6.10;99.90;;;;;;25511442;23;20001;-52
2023/12/01 09:43:27;;;;;;;188.80;5.57;;;5.90;99.90;;;;;;25470164;23;20013;-59
2023/12/01 09:53:28;;;;;;;396.52;11.32;;;5.70;99.90;;;;;;25475750;23;20153;-60
2023/12/01 10:03:30;;;;;;;317.55;12.30;;;5.80;99.90;;;;;;25477782;23;20005;-60
2023/12/01 10:13:41;;;;;;;627.03;18.00;;;6.50;99.90;;;;;;25477544;23;20006;-60
2023/12/01 10:23:42;;;;;;;;;;;6.80;99.90;;;;;;25477103;23;20005;-60
2023/12/01 10:33:47;;;;;;;200.50;5.35;;;6.30;99.90;;;;;;25476255;23;20391;-48
2023/12/01 10:43:51;;;;;;;211.02;6.20;;;6.10;99.90;;;;;;25474550;23;20349;-59
2023/12/01 10:53:57;;;;;;;653.92;21.13;;;5.90;99.90;;;;;;25475745;23;20005;-56
2023/12/01 11:04:06;;;;;;;234.32;8.00;;;6.40;99.90;;;;;;25515987;23;20009;-59
2023/12/01 11:14:14;;;;;;;939.17;30.45;;;6.50;99.90;;;;;;25515161;23;20072;-60
2023/12/01 11:24:31;;;;;;;360.35;13.65;;;6.20;99.90;;;;;;25473363;23;20005;-51
2023/12/01 11:34:32;;;;;;;371.75;15.23;;;6.40;99.90;;;;;;25514804;23;20002;-59
2023/12/01 11:44:40;;;;;;;712.63;23.15;;;6.60;99.90;;;;;;25473633;23;20017;-59
2023/12/01 11:54:43;;;;;;;576.70;19.70;;;6.70;99.90;;;;;;25514081;23;20010;-59
2023/12/01 12:04:48;;;;;;;709.85;23.70;;;6.60;99.90;;;;;;25472384;23;20001;-58
2023/12/01 12:14:52;;;;;;;304.42;11.32;;;6.70;99.90;;;;;;25470537;23;19998;-58
2023/12/01 12:24:53;;;;;;;404.85;15.77;;;6.80;99.90;;;;;;25472020;23;20009;-59
2023/12/01 12:34:55;;;;;;;1078.72;42.40;;;6.90;99.90;;;;;;25471876;23;20012;-58
2023/12/01 12:44:57;;;;;;;843.03;32.67;;;7.10;99.90;;;;;;25470205;23;20120;-59
2023/12/01 12:54:59;;;;;;;642.88;28.88;;;7.20;99.90;;;;;;25472804;23;20329;-49
2023/12/01 13:05:01;;;;;;;1999.90;74.18;;;7.20;99.90;;;;;;25470926;23;20040;-53
2023/12/01 13:15:04;;;;;;;1371.28;48.47;;;7.10;99.90;;;;;;25473441;23;20062;-59
2023/12/01 13:25:07;;;;;;;1267.57;48.85;;;7.10;99.90;;;;;;25474342;23;20056;-59
2023/12/01 13:35:08;;;;;;;1356.53;52.83;;;7.20;99.90;;;;;;25478728;23;20006;-59
2023/12/01 13:45:13;;;;;;;698.33;29.55;;;7.20;99.90;;;;;;25478093;23;20009;-50
2023/12/01 13:55:16;;;;;;;1359.97;59.38;;;7.20;99.90;;;;;;25477857;23;20005;-59
2023/12/01 14:05:18;;;;;;;1626.90;70.07;;;7.40;99.90;;;;;;25477693;23;20437;-50
2023/12/01 14:15:20;;;;;;;1811.68;90.90;;;7.50;99.90;;;;;;25477458;23;20076;-59
2023/12/01 14:25:22;;;;;;;1025.70;40.35;;;7.50;99.90;;;;;;25476904;23;20009;-60
2023/12/01 14:35:24;;;;;;;833.80;34.83;;;7.50;99.90;;;;;;25475924;23;20002;-59
2023/12/01 14:45:25;;;;;;;769.95;34.97;;;7.40;99.90;;;;;;25476296;23;20020;-53
2023/12/01 14:55:28;;;;;;;1358.25;59.30;;;7.40;99.90;;;;;;25475190;23;20355;-51
2023/12/01 15:05:30;;;;;;;1364.60;64.35;;;7.50;99.90;;;;;;25475277;23;20005;-59
2023/12/01 15:15:32;;;;;;;948.28;42.15;;;7.60;99.90;;;;;;25475177;23;20036;-59
2023/12/01 15:25:34;;;;;;;1664.88;67.03;;;7.80;99.90;;;;;;25473380;23;20013;-49
2023/12/01 15:35:35;;;;;;;1454.55;52.75;;;7.80;99.90;;;;;;25472714;23;20014;-59
2023/12/01 15:45:37;;;;;;;1585.63;60.72;;;7.70;99.90;;;;;;25473071;23;20009;-51
2023/12/01 15:55:39;;;;;;;1827.05;73.20;;;7.70;99.90;;;;;;25473119;23;20063;-50
2023/12/01 16:05:41;;;;;;;1806.10;66.95;;;7.80;99.90;;;;;;25472582;23;20032;-59
2023/12/01 16:15:43;;;;;;;1342.88;56.45;;;7.90;99.90;;;;;;25472720;23;20010;-56
2023/12/01 16:25:54;;;;;;;1889.10;87.60;;;8.00;99.90;;;;;;20980445;28;20375;-60
2023/12/01 16:35:56;;;;;;;1138.85;76.40;;;8.10;99.90;;;;;;20978241;28;20024;-48
2023/12/01 16:45:58;;;;;;;35.70;12.77;;;8.30;99.90;;;;;;20978678;28;20090;-49
2023/12/01 16:56:00;;;;;;;29.65;10.88;;;8.30;99.90;;;;;;20977458;28;20374;-52
2023/12/01 17:06:02;;;;;;;33.35;11.02;;;8.30;99.90;;;;;;20977058;28;20021;-59
2023/12/01 17:16:04;;;;;;;23.90;11.10;;;8.20;99.90;;;;;;20975834;28;20436;-60
2023/12/01 17:26:12;;;;;;;1439.13;68.78;;;8.20;99.90;;;;;;20975443;28;20024;-59
2023/12/01 17:36:14;;;;;;;27.20;12.55;;;8.10;99.90;;;;;;20925086;28;20037;-50
2023/12/01 17:46:16;;;;;;;25.20;8.95;;;7.90;99.90;;;;;;20918503;28;20040;-48
2023/12/01 17:56:21;;;;;;;22.08;6.78;;;7.70;99.90;;;;;;21067577;28;20033;-60
2023/12/01 18:06:23;;;;;;;18.80;7.00;;;7.60;99.90;;;;;;20999012;28;20044;-55
2023/12/01 18:16:25;;;;;;;15.85;6.15;;;7.70;99.90;;;;;;20977106;28;20033;-49
2023/12/01 18:26:27;;;;;;;14.38;5.72;;;7.60;99.90;;;;;;20996452;28;20032;-59
2023/12/01 18:36:28;;;;;;;11.18;4.85;;;7.60;99.90;;;;;;20997696;28;20040;-51
2023/12/01 18:46:30;;;;;;;14.68;5.13;;;7.50;99.90;;;;;;20995137;28;20040;-48
2023/12/01 18:56:35;;;;;;;18.50;6.20;;;7.50;99.90;;;;;;20996053;28;20112;-55
2023/12/01 19:06:39;;;;;;;20.75;6.57;;;7.50;99.90;;;;;;20995139;28;20105;-50
2023/12/01 19:16:41;;;;;;;24.33;7.72;;;7.50;99.90;;;;;;20971154;28;20442;-59
2023/12/01 19:26:43;;;;;;;23.80;8.35;;;7.60;99.90;;;;;;20993678;28;20028;-50
2023/12/01 19:36:45;;;;;;;22.88;7.57;;;7.50;99.90;;;;;;20992785;28;20036;-48
2023/12/01 19:46:47;;;;;;;20.50;8.48;;;7.60;99.90;;;;;;20992510;28;20032;-60
2023/12/01 19:56:49;;;;;;;24.85;10.18;;;7.50;99.90;;;;;;20991772;28;20094;-61
2023/12/01 20:06:51;;;;;;;25.05;9.15;;;7.50;99.90;;;;;;20990425;28;20035;-59
2023/12/01 20:16:52;;;;;;;23.38;8.75;;;7.50;99.90;;;;;;20983936;28;20383;-48
2023/12/01 20:26:54;;;;;;;22.98;7.90;;;7.60;99.90;;;;;;20991085;28;20036;-53
2023/12/01 20:36:56;;;;;;;48.90;12.90;;;7.50;99.90;;;;;;20990296;28;20037;-51
2023/12/01 20:46:58;;;;;;;26.20;9.75;;;7.40;99.90;;;;;;20989988;28;20035;-52
2023/12/01 20:57:00;;;;;;;33.25;11.30;;;7.30;99.90;;;;;;20989562;28;20031;-50
2023/12/01 21:07:02;;;;;;;48.60;16.52;;;7.30;99.90;;;;;;20995699;28;20535;-60
2023/12/01 21:17:04;;;;;;;42.83;15.43;;;7.20;99.90;;;;;;20996353;28;20041;-54
2023/12/01 21:27:06;;;;;;;196.50;20.92;;;7.30;99.90;;;;;;21003193;28;20037;-53
2023/12/01 21:37:08;;;;;;;292.85;26.80;;;7.30;99.90;;;;;;21002318;28;20082;-48
2023/12/01 21:47:12;;;;;;;787.95;45.72;;;7.30;99.90;;;;;;21001866;28;20036;-51
2023/12/01 21:57:15;;;;;;;1280.40;91.15;;;7.20;99.90;;;;;;21000850;28;20400;-48
2023/12/01 22:07:18;;;;;;;622.03;40.83;;;7.20;99.90;;;;;;20999801;28;20044;-61
2023/12/01 22:17:20;;;;;;;937.05;63.45;;;7.20;99.90;;;;;;20992210;28;20036;-52
2023/12/01 22:27:22;;;;;;;1149.75;67.18;;;7.20;99.90;;;;;;20999260;28;20024;-60
2023/12/01 22:37:24;;;;;;;630.03;50.80;;;7.20;99.90;;;;;;20997838;28;20028;-60
2023/12/01 22:47:25;;;;;;;38.50;11.70;;;7.20;99.90;;;;;;20996953;28;20032;-57
2023/12/01 22:57:27;;;;;;;37.40;11.27;;;7.20;99.90;;;;;;20996179;28;20062;-59
2023/12/01 23:07:29;;;;;;;30.40;10.25;;;7.30;99.90;;;;;;20995209;28;20082;-60
2023/12/01 23:17:31;;;;;;;31.42;10.27;;;7.30;99.90;;;;;;20987297;28;20086;-48
2023/12/01 23:27:33;;;;;;;36.92;10.43;;;7.30;99.90;;;;;;20993645;28;20066;-52
2023/12/01 23:37:35;;;;;;;23.45;9.55;;;7.20;99.90;;;;;;20993200;28;20436;-56
2023/12/01 23:47:36;;;;;;;493.40;38.28;;;7.20;99.90;;;;;;20992647;28;20033;-55
2023/12/01 23:57:38;;;;;;;379.65;32.13;;;7.10;99.90;;;;;;20992283;28;20043;-55
